Latest Weather Observations for Emerald

IDQ60801

Issued at 11:32 am EST Saturday 25 April 2015 (issued every 30 minutes, with the page automatically refreshed every 10 minutes)

About weather observations | Map of weather stations | Latest weather observations for QLD | Other Formats
Station Details ID: 035264 Name: EMERALD AIRPORT Lat: -23.57 Lon: 148.18 Height: 189.4 m
Data from the previous 72 hours. | See also: Recent months at Emerald
Date/Time
EST
Temp
°C
App
Temp
°C
Dew
Point
Rel
Hum
%
Delta-T
°C
Wind Press
QNH
hPa
Press
MSL
hPa
Rain
since 9 am
mm
Dir
 
Spd
km/h
Gust
km/h
Spd
kts
Gust
kts
25/11:30am 28.3 25.3 7.5 27 11.3 W 13 22 7 12 1011.7 - 0.0
25/11:00am 27.8 25.5 7.6 28 10.9 S 9 15 5 8 1012.2 - 0.0
25/10:30am 27.1 25.3 7.0 28 10.7 SW 6 13 3 7 1012.5 - 0.0
25/10:00am 26.1 24.3 8.1 32 9.7 S 7 13 4 7 1012.7 - 0.0
25/09:30am 24.2 22.2 8.6 37 8.4 SW 9 15 5 8 1012.9 - 0.0
25/09:00am 22.6 20.4 9.4 43 7.2 SW 11 15 6 8 1012.9 1012.1 0.0
25/08:30am 20.9 19.1 9.5 48 6.1 SSW 9 13 5 7 1012.8 - 0.0
25/08:00am 18.6 17.0 8.8 53 5.1 SSW 7 11 4 6 1012.7 - 0.0
25/07:30am 16.4 14.6 9.6 64 3.6 SSW 9 11 5 6 1012.5 - 0.0
25/07:00am 14.4 13.4 10.4 77 2.1 SSE 6 7 3 4 1012.2 - 0.0
25/06:30am 14.0 13.7 10.0 77 2.1 SSW 2 6 1 3 1011.8 - 0.0
25/06:00am 14.1 12.0 9.9 76 2.2 SW 11 13 6 7 1011.3 1010.5 0.0
25/05:30am 13.7 12.5 9.4 75 2.2 WSW 6 7 3 4 1011.0 - 0.0
25/05:00am 13.4 13.1 8.5 72 2.5 CALM 0 0 0 0 1010.9 - 0.0
25/04:30am 15.2 13.7 9.1 67 3.2 WNW 7 13 4 7 1010.7 - 0.0
25/04:00am 14.7 14.5 9.1 69 2.9 CALM 0 0 0 0 1010.6 - 0.0
25/03:30am 15.6 15.4 9.1 65 3.4 CALM 0 0 0 0 1010.6 - 0.0
25/03:00am 15.1 13.6 8.3 64 3.5 S 6 7 3 4 1010.8 1009.9 0.0
25/02:30am 15.5 13.6 9.0 65 3.4 S 9 11 5 6 1010.8 - 0.0
25/02:00am 15.4 13.8 8.6 64 3.5 S 7 9 4 5 1010.8 - 0.0
25/01:30am 15.6 13.7 9.1 65 3.4 SE 9 13 5 7 1010.8 - 0.0
25/01:00am 17.5 17.2 8.6 56 4.6 CALM 0 0 0 0 1010.7 - 0.0
25/12:30am 18.0 16.6 8.8 55 4.8 W 6 9 3 5 1011.1 - 0.0
25/12:00am 18.6 17.2 8.8 53 5.2 WNW 6 9 3 5 1011.2 1010.3 0.0
 
Date/Time
EST
Temp
°C
App
Temp
°C
Dew
Point
Rel
Hum
%
Delta-T
°C
Wind Press
QNH
hPa
Press
MSL
hPa
Rain
since 9 am
mm
Dir
 
Spd
km/h
Gust
km/h
Spd
kts
Gust
kts
24/11:30pm 18.8 17.2 8.2 50 5.5 NW 6 9 3 5 1011.2 - 0.0
24/11:00pm 19.0 17.9 8.6 51 5.5 NW 4 7 2 4 1011.2 - 0.0
24/10:30pm 19.3 17.9 9.5 53 5.2 NW 7 9 4 5 1011.3 - 0.0
24/10:00pm 20.2 20.1 9.5 50 5.7 CALM 0 0 0 0 1011.3 - 0.0
24/09:30pm 20.0 19.8 9.0 49 5.8 CALM 0 0 0 0 1011.2 - 0.0
24/09:00pm 20.0 19.2 8.0 46 6.3 SSW 2 6 1 3 1011.1 1010.2 0.0
24/08:30pm 20.7 20.3 8.4 45 6.5 CALM 0 0 0 0 1010.9 - 0.0
24/08:00pm 21.3 20.0 7.5 41 7.2 E 4 6 2 3 1010.7 - 0.0
24/07:30pm 22.3 21.0 7.7 39 7.7 E 4 6 2 3 1010.4 - 0.0
24/07:00pm 23.5 21.7 8.0 37 8.3 E 7 7 4 4 1010.0 - 0.0
24/06:30pm 24.6 22.8 7.3 33 9.2 SSE 6 7 3 4 1009.9 - 0.0
24/06:00pm 26.0 24.0 7.1 30 10.1 S 7 9 4 5 1009.8 1008.9 0.0
24/05:30pm 27.5 25.1 6.8 27 11.0 SW 9 13 5 7 1009.6 - 0.0
24/05:00pm 28.9 24.6 6.9 25 11.8 SW 19 24 10 13 1009.2 - 0.0
24/04:30pm 28.8 24.3 6.8 25 11.8 SSW 20 24 11 13 1009.0 - 0.0
24/04:00pm 29.1 26.5 7.6 26 11.7 WSW 11 17 6 9 1008.9 - 0.0
24/03:30pm 29.3 27.2 8.4 27 11.6 WSW 9 17 5 9 1008.9 - 0.0
24/03:00pm 28.3 26.2 8.1 28 11.1 SW 9 19 5 10 1009.0 1008.1 0.0
24/02:30pm 28.1 24.0 7.9 28 11.0 WSW 19 24 10 13 1009.2 - 0.0
24/02:00pm 28.4 26.4 8.7 29 10.9 S 9 17 5 9 1009.4 - 0.0
24/01:30pm 27.8 26.0 8.1 29 10.8 NW 7 13 4 7 1009.8 - 0.0
24/01:00pm 28.3 26.3 8.6 29 10.9 SW 9 19 5 10 1010.3 - 0.0
24/12:30pm 27.1 24.7 8.5 31 10.2 SW 11 17 6 9 1010.9 - 0.0
24/12:00pm 26.4 23.8 7.9 31 10.0 SW 11 17 6 9 1011.6 1010.8 0.0
24/11:30am 25.7 23.9 7.8 32 9.6 WNW 7 13 4 7 1012.2 - 0.0
24/11:00am 25.5 23.4 8.1 33 9.4 W 9 15 5 8 1012.8 - 0.0
24/10:30am 24.8 23.1 8.3 35 8.9 NW 7 13 4 7 1013.0 - 0.0
24/10:00am 24.0 21.9 8.4 37 8.4 W 9 11 5 6 1013.4 - 0.0
24/09:30am 22.7 21.0 8.4 40 7.6 SSW 7 11 4 6 1013.4 - 0.0
24/09:00am 21.5 19.7 9.4 46 6.5 SSE 9 13 5 7 1013.5 1012.7 0.0
24/08:30am 19.5 18.1 9.7 53 5.3 SSE 7 9 4 5 1013.4 - 0.0
24/08:00am 17.4 16.1 10.1 62 3.9 SSE 7 9 4 5 1013.3 - 0.0
24/07:30am 15.5 14.2 9.8 69 3.0 S 7 9 4 5 1013.2 - 0.0
24/07:00am 14.7 13.8 9.3 70 2.8 S 4 6 2 3 1012.9 - 0.0
24/06:30am 14.4 13.0 9.4 72 2.6 SSW 7 7 4 4 1012.6 - 0.0
24/06:00am 14.1 13.9 9.1 72 2.6 CALM 0 0 0 0 1012.1 1011.3 0.0
24/05:30am 13.7 12.3 9.0 73 2.4 S 6 7 3 4 1011.7 - 0.0
24/05:00am 14.0 12.4 8.8 71 2.7 WSW 7 9 4 5 1011.7 - 0.0
24/04:30am 13.7 11.7 8.7 72 2.5 SSW 9 11 5 6 1011.3 - 0.0
24/04:00am 13.6 13.5 9.5 76 2.1 CALM 0 0 0 0 1011.0 - 0.0
24/03:30am 14.9 14.8 9.5 70 2.8 CALM 0 0 0 0 1011.2 - 0.0
24/03:00am 14.8 14.7 9.4 70 2.8 CALM 0 0 0 0 1011.4 1010.6 0.0
24/02:30am 15.2 15.1 9.6 69 2.9 CALM 0 7 0 4 1011.7 - 0.0
24/02:00am 14.2 14.0 9.0 71 2.7 CALM 0 0 0 0 1011.6 - 0.0
24/01:30am 15.0 14.8 9.1 68 3.0 CALM 0 6 0 3 1011.8 - 0.0
24/01:00am 15.2 14.2 8.7 65 3.3 ENE 4 6 2 3 1011.7 - 0.0
24/12:30am 14.4 12.1 9.0 70 2.8 E 11 13 6 7 1012.0 - 0.0
24/12:00am 16.3 16.2 9.3 63 3.7 CALM 0 2 0 1 1011.8 1011.0 0.0
 
Date/Time
EST
Temp
°C
App
Temp
°C
Dew
Point
Rel
Hum
%
Delta-T
°C
Wind Press
QNH
hPa
Press
MSL
hPa
Rain
since 9 am
mm
Dir
 
Spd
km/h
Gust
km/h
Spd
kts
Gust
kts
23/11:30pm 17.4 15.9 9.1 58 4.4 WSW 7 9 4 5 1012.1 - 0.0
23/11:00pm 18.2 16.2 8.7 54 5.0 W 9 13 5 7 1012.2 - 0.0
23/10:30pm 18.3 18.0 8.6 53 5.1 CALM 0 0 0 0 1012.2 - 0.0
23/10:00pm 18.3 18.2 9.4 56 4.7 CALM 0 4 0 2 1012.3 - 0.0
23/09:30pm 18.4 18.1 8.7 53 5.1 CALM 0 0 0 0 1012.5 - 0.0
23/09:00pm 17.6 16.4 8.2 54 4.9 WSW 4 7 2 4 1012.4 1011.6 0.0
23/08:30pm 18.9 17.3 8.6 51 5.4 W 7 11 4 6 1012.4 - 0.0
23/08:00pm 19.4 17.5 7.5 46 6.1 S 7 7 4 4 1012.2 - 0.0
23/07:30pm 19.8 18.0 7.9 46 6.2 S 7 9 4 5 1012.1 - 0.0
23/07:00pm 20.9 18.7 7.9 43 6.8 SSE 9 11 5 6 1011.7 - 0.0
23/06:30pm 22.8 20.9 7.4 37 8.1 WSW 7 11 4 6 1011.3 - 0.0
23/06:00pm 23.7 21.8 6.9 34 8.8 SSW 6 9 3 5 1011.0 1010.1 0.0
23/05:30pm 25.1 23.2 6.8 31 9.6 SW 6 9 3 5 1010.7 - 0.0
23/05:00pm 25.6 23.1 6.7 30 10.0 SSW 9 13 5 7 1010.5 - 0.0
23/04:30pm 26.0 23.5 6.6 29 10.2 SSW 9 15 5 8 1010.2 - 0.0
23/04:00pm 26.3 23.9 6.9 29 10.3 SW 9 19 5 10 1010.2 - 0.0
23/03:30pm 26.8 24.1 7.3 29 10.4 W 11 17 6 9 1010.4 - 0.0
23/03:00pm 26.2 23.4 6.8 29 10.3 NE 11 19 6 10 1010.4 1009.5 0.0
23/02:30pm 25.6 22.7 6.7 30 10.0 SSW 11 17 6 9 1010.6 - 0.0
23/02:00pm 26.4 23.8 7.9 31 10.0 SW 11 22 6 12 1011.1 - 0.0
23/01:30pm 24.9 21.8 7.1 32 9.4 S 13 26 7 14 1011.7 - 0.0
23/01:00pm 24.3 21.4 6.6 32 9.2 SSE 11 15 6 8 1012.2 - 0.0
23/12:30pm 23.8 20.2 6.6 33 8.9 SSW 15 24 8 13 1012.9 - 0.0
23/12:00pm 23.5 19.5 6.7 34 8.7 SSW 17 24 9 13 1013.5 1012.7 0.0
23/11:30am 22.3 18.6 6.5 36 8.1 SSE 15 24 8 13 1014.4 - 0.0
23/11:00am 22.8 19.7 7.4 37 8.1 SE 13 24 7 13 1015.0 - 0.0
23/10:30am 22.1 18.5 6.7 37 7.9 SSE 15 28 8 15 1015.4 - 0.0
23/10:00am 21.1 16.8 7.0 40 7.3 SSE 19 26 10 14 1015.8 - 0.0
23/09:30am 20.4 16.7 6.4 40 7.1 SSE 15 24 8 13 1016.0 - 0.0
23/09:00am 19.4 16.8 7.8 47 6.0 S 11 19 6 10 1016.1 1015.3 0.0
23/08:30am 18.0 16.5 10.4 61 4.1 SSW 9 13 5 7 1016.1 - 0.0
23/08:00am 15.8 13.5 10.6 71 2.8 SW 13 17 7 9 1016.1 - 0.0
23/07:30am 13.8 12.7 10.8 82 1.6 SW 7 11 4 6 1015.9 - 0.0
23/07:00am 11.7 10.2 9.1 84 1.3 SSW 7 9 4 5 1015.6 - 0.0
23/06:30am 11.1 9.3 8.1 82 1.5 WSW 7 9 4 5 1015.4 - 0.0
23/06:00am 11.4 9.9 8.4 82 1.5 W 6 7 3 4 1015.1 1014.2 0.0
23/05:30am 11.1 8.6 8.1 82 1.5 SW 11 11 6 6 1014.8 - 0.0
23/05:00am 11.7 10.1 8.0 78 1.8 WSW 6 7 3 4 1014.5 - 0.0
23/04:30am 12.0 10.2 8.1 77 1.9 SW 7 9 4 5 1014.3 - 0.0
23/04:00am 12.6 12.1 7.9 73 2.3 CALM 0 6 0 3 1014.3 - 0.0
23/03:30am 13.1 11.5 8.0 71 2.5 SW 6 9 3 5 1014.3 - 0.0
23/03:00am 13.0 11.4 7.9 71 2.5 SSW 6 9 3 5 1014.3 1013.4 0.0
23/02:30am 13.1 12.2 7.8 70 2.6 S 2 6 1 3 1014.4 - 0.0
23/02:00am 13.5 11.7 7.9 69 2.8 S 7 11 4 6 1014.4 - 0.0
23/01:30am 13.6 11.5 8.2 70 2.7 S 9 13 5 7 1014.7 - 0.0
23/01:00am 13.9 11.0 8.1 68 2.9 SSE 13 15 7 8 1014.7 - 0.0
23/12:30am 14.2 11.3 8.2 67 3.0 S 13 17 7 9 1014.7 - 0.0
23/12:00am 14.7 11.1 8.2 65 3.3 SSE 17 20 9 11 1014.7 1013.8 0.0
 
Date/Time
EST
Temp
°C
App
Temp
°C
Dew
Point
Rel
Hum
%
Delta-T
°C
Wind Press
QNH
hPa
Press
MSL
hPa
Rain
since 9 am
mm
Dir
 
Spd
km/h
Gust
km/h
Spd
kts
Gust
kts
22/11:30pm 15.0 11.7 8.0 63 3.5 SSE 15 17 8 9 1015.1 - 0.0
22/11:00pm 15.9 12.3 8.2 60 3.9 SSE 17 20 9 11 1015.0 - 0.0
22/10:30pm 15.3 12.7 7.8 61 3.8 SSE 11 15 6 8 1015.3 - 0.0
22/10:00pm 16.0 13.8 8.0 59 4.1 SSE 9 9 5 5 1015.5 - 0.0
22/09:30pm 16.7 15.1 7.9 56 4.5 SSE 6 7 3 4 1015.6 - 0.0
22/09:00pm 17.1 15.9 8.0 55 4.7 SW 4 6 2 3 1015.5 1014.6 0.0
22/08:30pm 17.6 15.0 7.9 53 5.0 SE 11 15 6 8 1015.1 - 0.0
22/08:00pm 18.1 15.2 8.1 52 5.2 SE 13 17 7 9 1014.8 - 0.0
22/07:30pm 17.6 14.0 8.5 55 4.7 ESE 17 20 9 11 1014.4 - 0.0
22/07:00pm 18.4 16.6 8.1 51 5.3 ESE 7 9 4 5 1014.0 - 0.0
22/06:30pm 18.4 16.3 6.6 46 5.9 SSE 7 17 4 9 1013.8 - 0.0
22/06:00pm 22.7 20.4 5.6 33 8.7 WSW 7 9 4 5 1013.3 1012.5 0.0
22/05:30pm 23.8 20.7 5.7 31 9.3 SW 11 15 6 8 1013.2 - 0.0
22/05:00pm 24.7 20.6 6.4 31 9.5 WSW 17 24 9 13 1013.0 - 0.0
22/04:30pm 24.3 20.6 6.1 31 9.4 SW 15 20 8 11 1012.8 - 0.0
22/04:00pm 24.4 22.0 7.1 33 9.1 W 9 20 5 11 1012.7 - 0.0
22/03:30pm 23.8 21.4 7.0 34 8.8 S 9 15 5 8 1012.7 - 0.0
22/03:00pm 24.1 21.8 7.3 34 8.9 S 9 17 5 9 1012.7 1011.9 0.0
22/02:30pm 24.0 21.7 7.6 35 8.7 W 9 15 5 8 1013.2 - 0.0
22/02:00pm 23.2 21.0 7.7 37 8.2 WSW 9 17 5 9 1013.8 - 0.0
22/01:30pm 22.4 19.8 7.8 39 7.7 NNW 11 17 6 9 1014.2 - 0.0
22/01:00pm 22.4 20.4 8.5 41 7.4 WNW 9 17 5 9 1014.8 - 0.0
22/12:30pm 21.1 18.4 7.3 41 7.2 S 11 20 6 11 1015.3 - 0.0
22/12:00pm 20.8 17.4 7.8 43 6.8 SSE 15 22 8 12 1016.1 1015.3 0.0

Other Formats:

Comma delimited format used in spreadsheet applications
http://www.bom.gov.au/fwo/IDQ60801/IDQ60801.94363.axf

JavaScript Object Notation format (JSON) in row-major order
http://www.bom.gov.au/fwo/IDQ60801/IDQ60801.94363.json